Time;durP1;ratioP1;P1;durP2;ratioP2;P2;SDS_P1;SDS_P2;PMS_P1;PMS_P2;Temp;Humidity;BMP_temperature;BMP_pressure;BME280_temperature;BME280_humidity;BME280_pressure;Samples;Min_cycle;Max_cycle;Signal;HPM_P1;HPM_P2
2023/04/01 00:00:56;;;;;;;0.20;0.20;;;;;;;13.10;100.00;95044.00;5064709;28;20095;-52
2023/04/01 00:03:26;;;;;;;1.75;0.50;;;;;;;13.15;100.00;95054.81;5067691;28;20087;-55
2023/04/01 00:05:56;;;;;;;4.88;0.38;;;;;;;13.28;100.00;95044.34;5065207;28;20116;-55
2023/04/01 00:08:24;;;;;;;1.50;0.45;;;;;;;12.89;100.00;95046.72;5068474;28;20095;-50
2023/04/01 00:10:53;;;;;;;0.35;0.30;;;;;;;13.14;100.00;95045.22;5075199;28;20080;-49
2023/04/01 00:13:22;;;;;;;1.27;0.30;;;;;;;13.44;100.00;95047.66;5068291;28;20084;-46
2023/04/01 00:15:51;;;;;;;0.82;0.28;;;;;;;13.32;100.00;95041.28;5062695;28;20072;-50
2023/04/01 00:18:19;;;;;;;1.05;0.30;;;;;;;13.12;100.00;95020.81;5063096;28;20088;-53
2023/04/01 00:20:49;;;;;;;1.33;0.40;;;;;;;13.10;100.00;95044.00;5065952;28;20087;-46
2023/04/01 00:23:18;;;;;;;1.27;0.38;;;;;;;13.18;100.00;95046.50;5064673;28;20091;-51
2023/04/01 00:25:47;;;;;;;1.73;0.30;;;;;;;12.98;100.00;95043.72;5063193;28;20080;-57
2023/04/01 00:28:16;;;;;;;1.42;0.40;;;;;;;13.02;100.00;95042.31;5062313;28;20084;-51
2023/04/01 00:30:46;;;;;;;0.20;0.20;;;;;;;12.76;100.00;95044.78;5068196;28;20087;-54
2023/04/01 00:33:15;;;;;;;0.20;0.20;;;;;;;12.75;100.00;95037.88;5068539;28;20087;-53
2023/04/01 00:35:44;;;;;;;1.25;0.45;;;;;;;12.95;100.00;95040.66;5065405;28;20083;-50
2023/04/01 00:38:13;;;;;;;1.38;0.50;;;;;;;12.77;100.00;95044.63;5067515;28;20109;-49
2023/04/01 00:40:42;;;;;;;1.13;0.40;;;;;;;12.62;100.00;95041.22;5065209;28;20645;-48
2023/04/01 00:43:13;;;;;;;0.65;0.60;;;;;;;12.85;100.00;95042.84;5063626;28;20084;-48
2023/04/01 00:45:43;;;;;;;1.48;0.45;;;;;;;12.78;100.00;95040.94;5065733;28;20080;-53
2023/04/01 00:48:15;;;;;;;1.42;0.50;;;;;;;13.20;100.00;95038.34;5068313;28;20115;-50
2023/04/01 00:50:48;;;;;;;1.90;0.50;;;;;;;12.77;100.00;95038.50;5060598;28;20080;-58
2023/04/01 00:53:18;;;;;;;1.13;0.30;;;;;;;12.96;100.00;95045.75;5066956;28;20091;-53
2023/04/01 00:55:50;;;;;;;2.23;0.40;;;;;;;13.14;100.00;95045.22;5065786;28;20436;-54
2023/04/01 00:58:22;;;;;;;1.13;0.40;;;;;;;13.12;100.00;95049.09;5066580;28;20076;-61
2023/04/01 01:00:51;;;;;;;0.57;0.30;;;;;;;12.93;100.00;95043.47;5060397;28;20095;-57
2023/04/01 01:03:21;;;;;;;1.85;0.43;;;;;;;13.02;100.00;95034.38;5064346;28;20100;-51
2023/04/01 01:06:09;;;;;;;4.50;1.10;;;;;;;13.49;100.00;95038.13;5068247;28;20111;-52
2023/04/01 01:08:51;;;;;;;0.57;0.30;;;;;;;13.01;100.00;95035.41;5065092;28;20904;-51
2023/04/01 01:11:26;;;;;;;0.68;0.32;;;;;;;13.05;100.00;95035.84;5068167;28;20542;-54
2023/04/01 01:14:00;;;;;;;2.67;0.40;;;;;;;13.13;100.00;95038.31;5066129;28;20103;-53
2023/04/01 01:16:30;;;;;;;1.73;0.50;;;;;;;13.14;100.00;95037.28;5062345;28;20492;-48
2023/04/01 01:19:07;;;;;;;0.38;0.30;;;;;;;13.01;100.00;95037.25;5067928;28;20083;-50
2023/04/01 01:21:55;;;;;;;1.85;0.40;;;;;;;13.52;100.00;95039.53;5065015;28;20076;-50
2023/04/01 01:24:31;;;;;;;1.40;0.40;;;;;;;12.82;100.00;95041.38;5063556;28;20083;-47
2023/04/01 01:27:05;;;;;;;1.20;0.45;;;;;;;13.31;100.00;95027.22;5063132;28;20556;-50
2023/04/01 01:29:42;;;;;;;0.50;0.40;;;;;;;12.91;100.00;95024.34;5068315;28;20080;-52
2023/04/01 01:32:18;;;;;;;0.82;0.30;;;;;;;12.83;100.00;95027.13;5064116;28;20088;-52
2023/04/01 01:34:52;;;;;;;0.63;0.40;;;;;;;12.87;100.00;95032.84;5065232;28;20084;-49
2023/04/01 01:37:24;;;;;;;0.22;0.20;;;;;;;12.86;100.00;95024.09;5064382;28;20083;-51
2023/04/01 01:39:56;;;;;;;1.17;0.30;;;;;;;12.67;100.00;95032.75;5064017;28;20072;-47
2023/04/01 01:42:26;;;;;;;3.50;0.60;;;;;;;12.86;100.00;95032.03;5068064;28;20474;-49
2023/04/01 01:44:56;;;;;;;1.00;0.30;;;;;;;12.63;100.00;95032.31;5064759;28;20092;-52
2023/04/01 01:47:26;;;;;;;0.70;0.50;;;;;;;12.79;100.00;95031.19;5066813;28;20102;-50
2023/04/01 01:49:55;;;;;;;2.30;0.65;;;;;;;12.71;100.00;95040.09;5063894;28;20474;-50
2023/04/01 01:52:25;;;;;;;0.57;0.38;;;;;;;12.76;100.00;95036.84;5068681;28;20080;-46
2023/04/01 01:54:56;;;;;;;0.43;0.28;;;;;;;12.72;100.00;95025.84;5068223;28;20087;-54
2023/04/01 01:57:27;;;;;;;1.35;0.30;;;;;;;12.46;100.00;95025.66;5074547;28;20079;-45
2023/04/01 01:59:59;;;;;;;0.55;0.35;;;;;;;12.89;100.00;95029.00;5062160;28;20091;-48
2023/04/01 02:02:31;;;;;;;1.10;0.40;;;;;;;12.75;100.00;95024.66;5066087;28;20076;-47
2023/04/01 02:04:59;;;;;;;0.68;0.40;;;;;;;12.73;100.00;95043.38;5069681;28;20087;-50
2023/04/01 02:07:33;;;;;;;0.38;0.30;;;;;;;12.86;100.00;95036.50;5062172;28;20084;-51
2023/04/01 02:10:01;;;;;;;1.42;0.50;;;;;;;12.87;100.00;95033.69;5060548;28;20573;-52
2023/04/01 02:12:30;;;;;;;1.65;0.50;;;;;;;12.71;100.00;95040.09;5067798;28;20079;-49
2023/04/01 02:15:02;;;;;;;1.23;0.40;;;;;;;12.65;100.00;95038.22;5060835;28;20084;-53
2023/04/01 02:17:31;;;;;;;1.27;0.25;;;;;;;12.72;100.00;95035.59;5066526;28;20084;-48
2023/04/01 02:20:01;;;;;;;0.30;0.30;;;;;;;12.77;100.00;95041.16;5061705;28;20158;-49
2023/04/01 02:22:33;;;;;;;1.85;0.60;;;;;;;12.81;100.00;95039.75;5060558;28;22076;-52
2023/04/01 02:25:06;;;;;;;0.73;0.28;;;;;;;12.78;100.00;95037.50;5065617;28;20080;-53
2023/04/01 02:27:34;;;;;;;0.90;0.38;;;;;;;12.59;100.00;95031.88;5064015;28;20076;-49
2023/04/01 02:30:03;;;;;;;1.45;0.30;;;;;;;12.80;100.00;95036.28;5060705;28;20084;-51
2023/04/01 02:32:33;;;;;;;1.08;0.40;;;;;;;12.89;100.00;95022.91;5057935;28;20087;-49
2023/04/01 02:35:05;;;;;;;0.37;0.33;;;;;;;12.75;100.00;95027.28;5062453;28;20083;-49
2023/04/01 02:37:35;;;;;;;0.65;0.30;;;;;;;12.89;100.00;95031.66;5054404;28;20091;-54
2023/04/01 02:40:08;;;;;;;2.05;0.30;;;;;;;12.72;100.00;95036.44;5060030;28;20076;-50
2023/04/01 02:42:36;;;;;;;0.43;0.22;;;;;;;12.86;100.00;95032.03;5057519;28;20076;-55
2023/04/01 02:45:06;;;;;;;0.52;0.30;;;;;;;12.76;100.00;95021.78;5065806;28;20076;-57
2023/04/01 02:47:35;;;;;;;0.70;0.30;;;;;;;12.48;100.00;95029.72;5062004;28;20089;-50
2023/04/01 02:50:04;;;;;;;1.98;0.30;;;;;;;12.40;100.00;95042.28;5064443;28;20084;-58
2023/04/01 02:52:32;;;;;;;1.08;0.40;;;;;;;12.64;100.00;95054.28;5056991;28;20092;-52
2023/04/01 02:55:03;;;;;;;0.20;0.20;;;;;;;12.48;100.00;95015.69;5063316;28;20469;-55
2023/04/01 02:57:32;;;;;;;1.92;0.38;;;;;;;12.66;100.00;95054.88;5064952;28;20075;-48
2023/04/01 03:00:00;;;;;;;2.50;0.50;;;;;;;12.85;100.00;95056.06;5068012;28;20092;-52
2023/04/01 03:02:29;;;;;;;0.30;0.30;;;;;;;12.65;100.00;95053.25;5065940;28;20079;-55
2023/04/01 03:04:57;;;;;;;1.13;0.40;;;;;;;12.63;100.00;95060.56;5071772;28;20071;-54
2023/04/01 03:07:26;;;;;;;1.42;0.20;;;;;;;12.71;100.00;95055.16;5065469;28;20072;-47
2023/04/01 03:09:54;;;;;;;0.68;0.25;;;;;;;13.11;100.00;95050.09;5064312;28;20090;-52
2023/04/01 03:12:23;;;;;;;0.35;0.30;;;;;;;12.90;100.00;95051.81;5067871;28;20094;-50
2023/04/01 03:14:52;;;;;;;0.70;0.30;;;;;;;12.62;100.00;95058.94;5063634;28;20103;-54
2023/04/01 03:17:20;;;;;;;3.13;0.40;;;;;;;12.66;100.00;95061.00;5061915;28;20084;-54
2023/04/01 03:19:48;;;;;;;1.73;0.30;;;;;;;12.74;100.00;95066.16;5070929;28;20083;-52
2023/04/01 03:22:18;;;;;;;0.75;0.20;;;;;;;12.61;100.00;95062.59;5065441;28;20076;-54
2023/04/01 03:24:47;;;;;;;0.38;0.30;;;;;;;12.70;100.00;95070.19;5067138;28;20594;-48
2023/04/01 03:27:15;;;;;;;0.52;0.50;;;;;;;12.82;100.00;95076.59;5064782;28;20106;-49
2023/04/01 03:29:45;;;;;;;2.72;0.47;;;;;;;12.57;100.00;95078.84;5071978;28;20079;-50
2023/04/01 03:32:13;;;;;;;0.40;0.30;;;;;;;12.77;100.00;95071.06;5065621;28;20071;-46
2023/04/01 03:34:42;;;;;;;0.30;0.30;;;;;;;12.89;100.00;95081.09;5071440;28;20092;-47
2023/04/01 03:37:10;;;;;;;1.20;0.30;;;;;;;12.86;100.00;95089.44;5068410;28;20088;-54
2023/04/01 03:39:38;;;;;;;0.55;0.20;;;;;;;12.69;100.00;95097.63;5066747;28;20091;-55
2023/04/01 03:42:07;;;;;;;0.30;0.20;;;;;;;12.67;100.00;95088.28;5066715;28;20132;-50
2023/04/01 03:44:36;;;;;;;2.10;1.08;;;;;;;12.59;100.00;95091.84;5073527;28;20080;-49
2023/04/01 03:47:05;;;;;;;0.68;0.25;;;;;;;12.59;100.00;95094.50;5064240;28;20083;-54
2023/04/01 03:49:34;;;;;;;0.30;0.30;;;;;;;12.36;100.00;95097.38;5068158;28;20155;-49
2023/04/01 03:52:02;;;;;;;0.20;0.20;;;;;;;12.27;100.00;95098.50;5061937;28;20091;-50
2023/04/01 03:54:30;;;;;;;0.20;0.20;;;;;;;12.61;100.00;95108.34;5069851;28;20063;-47
2023/04/01 03:56:59;;;;;;;0.20;0.20;;;;;;;12.23;100.00;95116.53;5068303;28;20084;-54
2023/04/01 03:59:27;;;;;;;0.30;0.30;;;;;;;11.96;100.00;95104.06;5068685;28;20107;-54
2023/04/01 04:01:55;;;;;;;0.20;0.20;;;;;;;12.45;100.00;95108.63;5065511;28;20143;-53
2023/04/01 04:04:25;;;;;;;0.20;0.20;;;;;;;12.36;100.00;95118.50;5066224;28;20072;-52
2023/04/01 04:06:54;;;;;;;0.30;0.30;;;;;;;12.33;100.00;95095.09;5062625;28;20094;-52
2023/04/01 04:09:23;;;;;;;0.80;0.28;;;;;;;12.15;100.00;95074.41;5069401;28;20087;-49
2023/04/01 04:11:51;;;;;;;0.85;0.30;;;;;;;12.57;100.00;95109.75;5067967;28;20125;-52
2023/04/01 04:14:19;;;;;;;1.20;0.20;;;;;;;12.25;100.00;95106.63;5063241;28;20064;-51
2023/04/01 04:16:48;;;;;;;0.20;0.20;;;;;;;12.50;100.00;95101.75;5065220;28;20163;-52
2023/04/01 04:19:16;;;;;;;0.43;0.25;;;;;;;12.91;100.00;95114.31;5065901;28;20075;-49
2023/04/01 04:21:46;;;;;;;0.65;0.25;;;;;;;12.65;100.00;95116.72;5066317;28;20080;-49
2023/04/01 04:24:14;;;;;;;0.10;0.10;;;;;;;12.70;100.00;95117.00;5069292;28;20083;-51
2023/04/01 04:26:42;;;;;;;0.80;0.20;;;;;;;12.14;100.00;95120.31;5063209;28;20084;-50
2023/04/01 04:29:11;;;;;;;0.20;0.20;;;;;;;12.12;100.00;95117.03;5069112;28;20097;-50
2023/04/01 04:31:39;;;;;;;0.20;0.20;;;;;;;12.53;100.00;95124.38;5060973;28;20556;-54
2023/04/01 04:34:08;;;;;;;0.20;0.20;;;;;;;12.65;100.00;95124.66;5063749;28;20087;-50
2023/04/01 04:36:36;;;;;;;1.05;0.30;;;;;;;12.63;100.00;95116.94;5068962;28;20088;-55
2023/04/01 04:39:05;;;;;;;0.20;0.20;;;;;;;12.13;100.00;95116.03;5069218;28;20083;-51
2023/04/01 04:41:34;;;;;;;0.30;0.30;;;;;;;12.10;100.00;95121.69;5066831;28;20092;-53
2023/04/01 04:44:04;;;;;;;;;;;;;;;12.35;100.00;95124.78;5066815;28;20098;-56
2023/04/01 04:46:32;;;;;;;0.88;0.75;;;;;;;12.54;100.00;95128.63;5060332;28;19966;-52
2023/04/01 04:49:01;;;;;;;0.20;0.20;;;;;;;12.44;100.00;95128.13;5066004;28;20080;-53
2023/04/01 04:51:29;;;;;;;1.77;0.43;;;;;;;12.72;100.00;95129.00;5060604;28;20084;-52
2023/04/01 04:53:58;;;;;;;0.43;0.25;;;;;;;12.24;100.00;95133.22;5073520;28;20633;-48
2023/04/01 04:56:27;;;;;;;0.30;0.30;;;;;;;12.94;100.00;95124.50;5066833;28;20087;-48
2023/04/01 04:58:56;;;;;;;0.20;0.20;;;;;;;12.45;100.00;95132.41;5074039;28;20083;-52
2023/04/01 05:01:25;;;;;;;0.82;0.30;;;;;;;12.72;100.00;95122.88;5064694;28;20541;-49
2023/04/01 05:03:53;;;;;;;0.20;0.20;;;;;;;12.70;100.00;95133.69;5068482;28;20079;-49
2023/04/01 05:06:21;;;;;;;0.75;0.60;;;;;;;12.70;100.00;95122.28;5066963;28;20159;-49
2023/04/01 05:08:50;;;;;;;2.28;0.30;;;;;;;12.72;100.00;95115.78;5064821;28;20084;-60
2023/04/01 05:11:20;;;;;;;0.73;0.20;;;;;;;12.81;100.00;95124.41;5063260;28;20610;-50
2023/04/01 05:13:51;;;;;;;0.30;0.30;;;;;;;12.54;100.00;95118.06;5061215;28;20081;-50
2023/04/01 05:16:20;;;;;;;0.73;0.50;;;;;;;12.73;100.00;95117.44;5062125;28;20084;-49
2023/04/01 05:18:49;;;;;;;1.10;0.32;;;;;;;12.40;100.00;95127.69;5058824;28;20083;-48
2023/04/01 05:21:17;;;;;;;2.95;0.82;;;;;;;12.66;100.00;95119.16;5058071;28;20525;-56
2023/04/01 05:23:45;;;;;;;1.38;0.32;;;;;;;12.76;100.00;95132.06;5063204;28;20103;-49
2023/04/01 05:26:15;;;;;;;0.50;0.30;;;;;;;12.90;100.00;95123.22;5062664;28;20088;-47
2023/04/01 05:28:43;;;;;;;0.50;0.30;;;;;;;13.28;100.00;95122.91;5061356;28;20084;-50
2023/04/01 05:31:13;;;;;;;0.50;0.30;;;;;;;13.06;100.00;95117.66;5069862;28;20099;-47
2023/04/01 05:33:41;;;;;;;0.30;0.30;;;;;;;13.10;100.00;95119.94;5063219;28;20079;-50
2023/04/01 05:36:11;;;;;;;1.55;0.50;;;;;;;12.97;100.00;95121.47;5062268;28;20080;-51
2023/04/01 05:38:40;;;;;;;0.60;0.30;;;;;;;13.78;100.00;95113.00;5064973;28;20084;-46
2023/04/01 05:41:09;;;;;;;0.30;0.30;;;;;;;13.45;100.00;95111.00;5061557;28;20099;-49
2023/04/01 05:43:37;;;;;;;1.05;0.40;;;;;;;13.72;100.00;95119.09;5045712;28;20068;-49
2023/04/01 05:46:06;;;;;;;0.55;0.43;;;;;;;13.79;100.00;95111.97;5058399;28;20482;-47
2023/04/01 05:48:36;;;;;;;1.08;0.60;;;;;;;14.05;100.00;95111.28;5069036;28;20080;-46
2023/04/01 05:51:05;;;;;;;0.73;0.30;;;;;;;13.70;100.00;95108.69;5075565;28;20532;-52
2023/04/01 05:53:33;;;;;;;0.32;0.32;;;;;;;13.98;100.00;95121.03;5073248;28;20084;-49
2023/04/01 05:56:05;;;;;;;1.08;0.30;;;;;;;13.97;100.00;95122.88;5071783;28;20083;-52
2023/04/01 05:58:33;;;;;;;1.33;0.40;;;;;;;13.74;100.00;95120.53;5055738;28;20801;-48
2023/04/01 06:01:03;;;;;;;1.10;0.50;;;;;;;13.84;100.00;95114.88;5061284;28;20087;-51
2023/04/01 06:03:39;;;;;;;0.98;0.45;;;;;;;14.10;100.00;95118.63;5063488;28;20087;-48
2023/04/01 06:06:15;;;;;;;0.63;0.40;;;;;;;13.57;100.00;95121.88;5063777;28;20119;-48
2023/04/01 06:08:43;;;;;;;0.98;0.38;;;;;;;14.41;100.00;95121.56;5059726;28;20083;-44
2023/04/01 06:11:23;;;;;;;0.70;0.40;;;;;;;13.69;100.00;95124.78;5060466;28;20088;-48
2023/04/01 06:14:13;;;;;;;1.40;0.40;;;;;;;13.74;100.00;95123.19;5061787;28;20080;-48
2023/04/01 06:16:52;;;;;;;0.40;0.40;;;;;;;13.89;100.00;95119.56;5054350;28;20488;-47
2023/04/01 06:19:33;;;;;;;1.20;0.40;;;;;;;14.14;100.00;95127.81;5066022;28;20466;-49
2023/04/01 06:22:23;;;;;;;1.80;0.40;;;;;;;13.83;100.00;95118.53;5058867;28;20099;-48
2023/04/01 06:25:05;;;;;;;0.32;0.32;;;;;;;14.05;100.00;95121.88;5062615;28;20525;-46
2023/04/01 06:27:48;;;;;;;0.57;0.35;;;;;;;13.34;100.00;95126.63;5063997;28;20571;-45
2023/04/01 06:30:34;;;;;;;8.63;0.40;;;;;;;13.74;100.00;95115.25;5062437;28;20079;-49
2023/04/01 06:33:35;;;;;;;2.20;0.40;;;;;;;13.87;100.00;95118.97;5065732;28;20091;-54
2023/04/01 06:36:19;;;;;;;0.75;0.45;;;;;;;13.51;100.00;95112.88;5016769;28;20084;-47
2023/04/01 06:38:59;;;;;;;1.30;0.57;;;;;;;13.94;100.00;95123.28;5072738;28;20103;-46
2023/04/01 06:41:48;;;;;;;2.13;0.57;;;;;;;14.24;100.00;95120.28;5067735;28;20466;-48
2023/04/01 06:44:20;;;;;;;4.07;0.77;;;;;;;14.09;100.00;95114.34;5070578;28;20079;-53
2023/04/01 06:46:49;;;;;;;2.95;0.45;;;;;;;14.27;100.00;95121.72;5070350;28;20479;-52
2023/04/01 06:49:34;;;;;;;0.30;0.30;;;;;;;14.09;100.00;95122.28;5066580;28;20103;-54
2023/04/01 06:52:13;;;;;;;2.80;0.50;;;;;;;14.21;100.00;95126.00;5068511;28;20080;-48
2023/04/01 06:54:43;;;;;;;1.88;0.55;;;;;;;14.74;100.00;95127.97;5065907;28;20076;-48
2023/04/01 06:57:21;;;;;;;1.70;0.50;;;;;;;14.65;96.47;95106.91;5068360;28;20088;-52
2023/04/01 06:59:50;;;;;;;1.38;0.50;;;;;;;14.47;99.49;95117.28;5069976;28;20080;-52
2023/04/01 07:02:25;;;;;;;3.65;0.65;;;;;;;15.03;97.76;95129.41;5063719;28;20084;-53
2023/04/01 07:04:55;;;;;;;1.27;0.52;;;;;;;14.14;96.14;95130.47;5066249;28;20473;-50
2023/04/01 07:07:32;;;;;;;0.95;0.47;;;;;;;14.44;100.00;95113.19;5065706;28;20087;-46
2023/04/01 07:10:04;;;;;;;1.88;0.30;;;;;;;14.40;100.00;95127.06;5068151;28;20084;-50
2023/04/01 07:12:39;;;;;;;2.05;0.73;;;;;;;14.22;99.95;95125.00;5068887;28;20080;-47
2023/04/01 07:15:17;;;;;;;2.28;0.40;;;;;;;14.25;100.00;95114.81;5063337;28;20084;-52
2023/04/01 07:17:47;;;;;;;1.23;0.43;;;;;;;14.34;100.00;95125.22;5067719;28;20425;-50
2023/04/01 07:20:20;;;;;;;0.40;0.40;;;;;;;14.19;100.00;95120.91;5065817;28;20067;-53
2023/04/01 07:22:51;;;;;;;0.30;0.30;;;;;;;14.47;98.21;95130.56;5052137;28;20083;-45
2023/04/01 07:25:25;;;;;;;0.88;0.40;;;;;;;14.43;95.89;95114.22;5065396;28;20474;-46
2023/04/01 07:27:54;;;;;;;0.43;0.38;;;;;;;14.67;94.66;95134.09;5068811;28;20414;-50
2023/04/01 07:30:24;;;;;;;1.75;0.40;;;;;;;15.37;93.42;95136.31;5068448;28;20743;-50
2023/04/01 07:32:58;;;;;;;0.25;0.25;;;;;;;15.22;90.85;95147.16;5071905;28;20079;-48
2023/04/01 07:35:32;;;;;;;1.30;0.45;;;;;;;14.56;91.75;95129.38;5067664;28;20083;-45
2023/04/01 07:38:12;;;;;;;0.30;0.30;;;;;;;14.89;90.21;95129.38;5065559;28;20084;-51
2023/04/01 07:40:48;;;;;;;1.02;0.47;;;;;;;14.57;88.01;95101.81;5072093;28;20080;-48
2023/04/01 07:43:59;;;;;;;1.83;0.73;;;;;;;14.74;87.13;95133.28;5067073;28;20477;-53
2023/04/01 07:46:46;;;;;;;0.40;0.30;;;;;;;14.76;86.86;95121.41;5062228;28;20159;-49
2023/04/01 07:49:18;;;;;;;2.20;0.40;;;;;;;15.38;87.79;95146.75;5072914;28;20108;-48
2023/04/01 07:51:53;;;;;;;2.00;0.40;;;;;;;14.70;89.08;95117.75;5072950;28;20091;-48
2023/04/01 07:54:27;;;;;;;1.48;0.50;;;;;;;15.61;88.49;95145.47;5067759;28;20774;-48
2023/04/01 07:56:59;;;;;;;0.70;0.30;;;;;;;15.23;86.80;95118.75;5069144;28;20119;-52
2023/04/01 07:59:34;;;;;;;0.40;0.40;;;;;;;15.48;78.88;95135.66;5066061;28;20083;-51
2023/04/01 08:02:09;;;;;;;1.55;0.47;;;;;;;15.44;82.58;95134.44;5070305;28;20110;-55
2023/04/01 08:04:50;;;;;;;0.40;0.30;;;;;;;15.22;91.59;95144.50;5071532;28;20084;-47
2023/04/01 08:07:21;;;;;;;0.93;0.30;;;;;;;14.79;86.28;95128.16;5069678;28;20087;-55
2023/04/01 08:09:56;;;;;;;1.02;0.30;;;;;;;14.76;84.09;95140.00;5069507;28;20076;-50
2023/04/01 08:12:35;;;;;;;0.30;0.20;;;;;;;14.68;81.53;95124.28;5069179;28;20478;-55
2023/04/01 08:15:12;;;;;;;2.03;0.50;;;;;;;14.69;80.09;95115.28;5065179;28;20548;-52
2023/04/01 08:17:48;;;;;;;0.68;0.20;;;;;;;15.24;86.23;95131.81;5071404;28;20048;-52
2023/04/01 08:20:27;;;;;;;0.20;0.20;;;;;;;15.43;80.04;95138.16;5075839;28;20083;-50
2023/04/01 08:23:02;;;;;;;3.00;0.75;;;;;;;15.89;79.73;95135.38;5066333;28;20088;-53
2023/04/01 08:25:33;;;;;;;1.02;0.30;;;;;;;15.60;77.94;95128.69;5051336;28;20080;-47
2023/04/01 08:28:11;;;;;;;0.57;0.57;;;;;;;15.04;85.22;95131.84;5070959;28;20483;-52
2023/04/01 08:30:44;;;;;;;0.82;0.35;;;;;;;16.11;71.36;95121.81;5068858;28;20103;-49
2023/04/01 08:33:18;;;;;;;1.70;0.30;;;;;;;15.53;82.89;95125.25;5071410;28;20076;-49
2023/04/01 08:35:50;;;;;;;0.90;0.30;;;;;;;15.51;76.03;95123.81;5069389;28;20080;-52
2023/04/01 08:38:21;;;;;;;0.93;0.30;;;;;;;15.92;76.26;95110.22;5068990;28;20072;-52
2023/04/01 08:41:00;;;;;;;0.32;0.30;;;;;;;16.12;77.10;95118.13;5070425;28;20083;-49
2023/04/01 08:43:59;;;;;;;0.40;0.20;;;;;;;15.54;77.00;95110.94;5074289;28;20545;-52
2023/04/01 08:47:03;;;;;;;0.47;0.17;;;;;;;15.90;69.82;95115.75;5034862;28;20086;-47
2023/04/01 08:50:02;;;;;;;0.30;0.20;;;;;;;15.79;74.31;95097.78;5065449;28;20515;-50
2023/04/01 08:52:36;;;;;;;0.20;0.20;;;;;;;15.00;78.37;95084.66;5067705;28;20465;-51
2023/04/01 08:55:28;;;;;;;0.75;0.20;;;;;;;15.67;78.04;95126.06;5072976;28;20091;-54
2023/04/01 08:58:33;;;;;;;0.20;0.20;;;;;;;15.65;80.51;95109.47;5073750;28;20044;-50
2023/04/01 09:01:12;;;;;;;0.50;0.20;;;;;;;15.18;73.29;95106.94;5064826;28;20087;-55
2023/04/01 09:03:58;;;;;;;0.30;0.20;;;;;;;15.51;73.15;95094.59;5072965;28;20084;-49
2023/04/01 09:06:30;;;;;;;0.20;0.20;;;;;;;15.34;76.72;95126.09;5069204;28;20079;-53
2023/04/01 09:09:10;;;;;;;0.95;0.40;;;;;;;15.81;69.68;95117.00;5063432;28;20084;-48
2023/04/01 09:11:52;;;;;;;0.50;0.25;;;;;;;16.05;74.15;95080.09;5067841;28;20091;-56
2023/04/01 09:14:41;;;;;;;1.23;0.30;;;;;;;16.17;73.35;95106.84;5067602;28;20087;-51
2023/04/01 09:17:31;;;;;;;0.38;0.22;;;;;;;16.10;70.43;95128.97;5057096;28;20080;-50
2023/04/01 09:20:15;;;;;;;0.20;0.20;;;;;;;16.41;71.48;95095.44;5066252;28;20103;-49
2023/04/01 09:22:52;;;;;;;0.20;0.20;;;;;;;16.92;63.04;95096.34;5062783;28;20470;-52
2023/04/01 09:25:30;;;;;;;1.33;0.30;;;;;;;16.83;69.82;95099.28;5061222;28;20080;-46
2023/04/01 09:28:06;;;;;;;0.30;0.20;;;;;;;16.81;64.51;95095.19;5070754;28;20080;-47
2023/04/01 09:30:47;;;;;;;0.17;0.17;;;;;;;16.29;63.13;95110.47;5071658;28;20814;-50
2023/04/01 09:33:44;;;;;;;0.75;0.30;;;;;;;16.42;65.44;95099.75;5072343;28;20084;-53
2023/04/01 09:36:20;;;;;;;0.30;0.22;;;;;;;16.24;62.46;95091.66;5071061;28;20084;-49
2023/04/01 09:38:57;;;;;;;0.20;0.20;;;;;;;16.49;63.63;95089.06;5066799;28;20076;-50
2023/04/01 09:41:30;;;;;;;0.20;0.20;;;;;;;16.57;68.82;95086.13;5071419;28;20083;-51
2023/04/01 09:44:03;;;;;;;0.35;0.30;;;;;;;16.97;63.03;95088.53;5071265;28;20088;-48
2023/04/01 09:46:43;;;;;;;1.35;0.20;;;;;;;17.49;59.45;95092.53;5068585;28;20087;-51
2023/04/01 09:49:36;;;;;;;0.20;0.20;;;;;;;17.51;58.96;95089.63;5069065;28;20083;-46
2023/04/01 09:52:15;;;;;;;0.57;0.22;;;;;;;17.06;56.72;95084.53;5066860;28;20083;-53
2023/04/01 09:54:54;;;;;;;0.10;0.10;;;;;;;16.96;56.68;95063.72;5068335;28;20540;-47
2023/04/01 09:57:49;;;;;;;0.38;0.20;;;;;;;16.80;57.64;95073.09;5067852;28;20102;-48
2023/04/01 10:00:49;;;;;;;0.82;0.20;;;;;;;16.76;58.50;95074.56;5067483;28;20080;-48
2023/04/01 10:03:44;;;;;;;0.20;0.20;;;;;;;16.97;60.16;95065.38;5058282;28;20532;-47
2023/04/01 10:06:34;;;;;;;0.28;0.20;;;;;;;16.21;64.02;95068.97;5040290;28;20562;-49
2023/04/01 10:09:34;;;;;;;1.35;0.43;;;;;;;16.77;62.89;95068.19;5068308;28;20095;-51
2023/04/01 10:12:40;;;;;;;0.30;0.20;;;;;;;16.29;65.69;95071.38;5065999;28;20094;-55
2023/04/01 10:15:30;;;;;;;2.70;0.20;;;;;;;16.68;60.40;95058.81;5069965;28;20072;-50
2023/04/01 10:18:28;;;;;;;0.20;0.20;;;;;;;16.90;62.34;95063.81;5067732;28;20088;-48
2023/04/01 10:21:20;;;;;;;0.20;0.20;;;;;;;17.30;63.62;95073.03;5037613;28;20131;-52
2023/04/01 10:24:22;;;;;;;0.20;0.20;;;;;;;16.68;61.80;95065.97;5069123;28;20549;-52
2023/04/01 10:27:17;;;;;;;0.20;0.20;;;;;;;16.98;62.85;95071.50;5060367;28;20528;-51
2023/04/01 10:30:07;;;;;;;0.40;0.25;;;;;;;17.78;57.68;95069.66;5062976;28;20541;-51
2023/04/01 10:33:15;;;;;;;0.55;0.20;;;;;;;17.26;57.01;95055.06;5060402;28;20537;-52
2023/04/01 10:36:28;;;;;;;0.20;0.20;;;;;;;17.38;61.09;95073.78;5061550;28;20080;-52
2023/04/01 10:39:24;;;;;;;0.35;0.30;;;;;;;17.17;56.83;95043.88;5061697;28;20099;-50
2023/04/01 10:42:21;;;;;;;0.65;0.20;;;;;;;16.87;59.50;95075.69;5069812;28;20060;-50
2023/04/01 10:45:45;;;;;;;0.77;0.40;;;;;;;16.96;60.34;95060.25;5058784;28;20048;-52
2023/04/01 10:48:20;;;;;;;0.20;0.20;;;;;;;17.49;63.50;95059.72;5060028;28;20084;-49
2023/04/01 10:51:17;;;;;;;1.58;0.17;;;;;;;18.12;63.45;95067.41;5061453;28;22639;-56
2023/04/01 10:54:10;;;;;;;0.57;0.20;;;;;;;17.48;55.77;95050.94;5062490;28;20496;-55
2023/04/01 10:56:45;;;;;;;2.90;1.30;;;;;;;16.66;67.79;95028.94;5063016;28;20524;-48
2023/04/01 10:59:43;;;;;;;0.17;0.13;;;;;;;16.42;72.21;95046.53;5065576;28;20083;-48
2023/04/01 11:02:48;;;;;;;0.20;0.20;;;;;;;16.58;74.12;95077.91;5059969;28;20094;-48
2023/04/01 11:05:33;;;;;;;0.65;0.30;;;;;;;16.38;75.49;95059.47;5055918;28;20084;-52
2023/04/01 11:08:34;;;;;;;0.15;0.15;;;;;;;16.74;79.93;95073.94;5067775;28;20080;-47
2023/04/01 11:11:26;;;;;;;0.20;0.20;;;;;;;16.41;85.31;95068.03;5055466;28;20084;-55
2023/04/01 11:14:19;;;;;;;0.28;0.28;;;;;;;16.56;81.88;95079.19;5062444;28;20092;-52
2023/04/01 11:17:13;;;;;;;0.45;0.20;;;;;;;15.89;83.07;95082.22;5061114;28;20083;-52
2023/04/01 11:19:57;;;;;;;0.20;0.20;;;;;;;16.13;89.82;95099.28;5069533;28;20083;-49
2023/04/01 11:22:41;;;;;;;0.20;0.20;;;;;;;16.03;92.26;95077.66;5065964;28;20080;-50
2023/04/01 11:25:35;;;;;;;0.10;0.10;;;;;;;16.23;85.57;95082.84;5065087;28;20072;-51
2023/04/01 11:28:23;;;;;;;0.20;0.20;;;;;;;16.20;80.31;95085.13;5069719;28;20525;-52
2023/04/01 11:31:05;;;;;;;0.20;0.20;;;;;;;16.05;82.62;95101.38;5065262;28;20493;-53
2023/04/01 11:33:37;;;;;;;0.15;0.15;;;;;;;16.71;81.86;95092.97;5072157;28;20079;-47
2023/04/01 11:36:11;;;;;;;0.63;0.30;;;;;;;16.84;75.41;95092.09;5069622;28;20092;-48
2023/04/01 11:39:02;;;;;;;0.20;0.20;;;;;;;17.83;74.68;95095.69;5066156;28;20088;-49
2023/04/01 11:41:38;;;;;;;1.75;0.30;;;;;;;16.77;79.47;95073.53;5067758;28;21904;-47
2023/04/01 11:44:16;;;;;;;0.10;0.10;;;;;;;16.98;82.19;95095.47;5068286;28;20088;-47
2023/04/01 11:46:53;;;;;;;0.85;0.20;;;;;;;16.27;84.00;95100.03;5064153;28;20754;-48
2023/04/01 11:49:34;;;;;;;0.20;0.20;;;;;;;16.55;98.20;95126.28;5061404;28;20473;-48
2023/04/01 11:52:16;;;;;;;0.20;0.20;;;;;;;16.19;100.00;95137.50;5066655;28;20603;-52
2023/04/01 11:55:07;;;;;;;0.17;0.17;;;;;;;16.77;100.00;95125.94;5059450;28;20190;-49
2023/04/01 11:57:50;;;;;;;0.10;0.10;;;;;;;16.08;100.00;95133.69;5056292;28;20116;-49
2023/04/01 12:00:43;;;;;;;0.20;0.20;;;;;;;15.60;100.00;95127.88;5056377;28;20201;-48
2023/04/01 12:03:23;;;;;;;0.20;0.20;;;;;;;15.73;100.00;95135.84;5059322;28;20506;-45
2023/04/01 12:05:55;;;;;;;0.20;0.20;;;;;;;16.49;100.00;95139.63;5057315;28;20470;-52
2023/04/01 12:08:32;;;;;;;0.20;0.20;;;;;;;15.50;100.00;95109.72;5061846;28;20076;-49
2023/04/01 12:11:04;;;;;;;0.13;0.13;;;;;;;15.47;100.00;95139.34;5060730;28;20533;-55